Time;durP1;ratioP1;P1;durP2;ratioP2;P2;SDS_P1;SDS_P2;PMS_P1;PMS_P2;Temp;Humidity;BMP_temperature;BMP_pressure;BME280_temperature;BME280_humidity;BME280_pressure;Samples;Min_cycle;Max_cycle;Signal;HPM_P1;HPM_P2
2022/10/11 00:01:38;;;;;;;0.60;0.60;;;8.90;99.90;;;;;;5052395;28;21283;-70
2022/10/11 00:04:04;;;;;;;0.60;0.60;;;8.90;99.90;;;;;;5053293;28;20209;-71
2022/10/11 00:06:30;;;;;;;0.50;0.50;;;8.80;99.90;;;;;;5053310;28;20665;-72
2022/10/11 00:08:55;;;;;;;0.63;0.63;;;8.80;99.90;;;;;;5038828;28;20190;-71
2022/10/11 00:11:21;;;;;;;0.60;0.60;;;8.70;99.90;;;;;;5051778;28;20232;-71
2022/10/11 00:13:47;;;;;;;0.60;0.60;;;8.60;99.90;;;;;;5053067;28;20205;-71
2022/10/11 00:16:14;;;;;;;0.80;0.80;;;8.50;99.90;;;;;;5039992;28;20208;-71
2022/10/11 00:18:40;;;;;;;0.52;0.52;;;8.50;99.90;;;;;;5073153;28;20199;-71
2022/10/11 00:21:09;;;;;;;0.70;0.70;;;8.40;99.90;;;;;;5073218;28;20244;-71
2022/10/11 00:23:35;;;;;;;0.60;0.60;;;8.20;99.90;;;;;;5072991;28;20224;-71
2022/10/11 00:26:04;;;;;;;0.60;0.60;;;8.10;99.90;;;;;;5072999;28;20185;-70
2022/10/11 00:28:30;;;;;;;0.60;0.60;;;8.00;99.90;;;;;;5072958;28;20203;-71
2022/10/11 00:30:55;;;;;;;0.60;0.60;;;7.90;99.90;;;;;;5073003;28;20267;-71
2022/10/11 00:33:21;;;;;;;1.13;1.05;;;7.70;99.90;;;;;;5054843;28;20196;-70
2022/10/11 00:35:47;;;;;;;0.80;0.80;;;7.80;99.90;;;;;;5073017;28;20626;-70
2022/10/11 00:38:13;;;;;;;0.60;0.60;;;7.70;99.90;;;;;;5072986;28;20188;-70
2022/10/11 00:40:39;;;;;;;0.52;0.52;;;7.60;99.90;;;;;;5071290;28;20216;-70
2022/10/11 00:43:18;;;;;;;0.80;0.80;;;7.50;99.90;;;;;;5052868;28;20201;-70
2022/10/11 00:45:55;;;;;;;0.60;0.60;;;7.40;99.90;;;;;;5052595;28;20231;-70
2022/10/11 00:48:35;;;;;;;0.60;0.60;;;7.30;99.90;;;;;;5052698;28;20660;-70
2022/10/11 00:51:06;;;;;;;0.60;0.60;;;7.20;99.90;;;;;;5052842;28;20190;-69
2022/10/11 00:53:32;;;;;;;0.60;0.60;;;7.00;99.90;;;;;;5052371;28;20194;-70
2022/10/11 00:56:08;;;;;;;0.60;0.60;;;6.90;99.90;;;;;;5052698;28;20202;-70
2022/10/11 00:58:35;;;;;;;0.70;0.70;;;6.80;99.90;;;;;;5052540;28;20648;-71
2022/10/11 01:01:02;;;;;;;0.70;0.70;;;6.70;99.90;;;;;;5035003;28;20288;-65
2022/10/11 01:03:30;;;;;;;0.70;0.70;;;6.60;99.90;;;;;;5052350;28;20233;-66
2022/10/11 01:05:56;;;;;;;0.57;0.57;;;6.70;99.90;;;;;;5052355;28;20319;-66
2022/10/11 01:08:22;;;;;;;0.60;0.60;;;6.70;99.90;;;;;;5052226;28;20334;-66
2022/10/11 01:10:48;;;;;;;0.60;0.60;;;6.70;99.90;;;;;;5052468;28;20268;-65
2022/10/11 01:13:28;;;;;;;0.57;0.57;;;6.70;99.90;;;;;;5062365;28;20370;-66
2022/10/11 01:16:04;;;;;;;0.60;0.60;;;6.60;99.90;;;;;;5072583;28;20589;-66
2022/10/11 01:18:40;;;;;;;0.70;0.70;;;6.50;99.90;;;;;;5072383;28;20192;-65
2022/10/11 01:21:23;;;;;;;0.52;0.52;;;6.40;99.90;;;;;;5072439;28;20644;-66
2022/10/11 01:23:49;;;;;;;0.70;0.70;;;6.40;99.90;;;;;;5072408;28;20212;-65
2022/10/11 01:26:48;;;;;;;0.47;0.47;;;6.30;99.90;;;;;;5072388;28;20188;-66
2022/10/11 01:29:22;;;;;;;0.65;0.65;;;6.20;99.90;;;;;;5072445;28;20279;-64
2022/10/11 01:32:05;;;;;;;0.60;0.60;;;6.10;99.90;;;;;;5045350;28;20582;-65
2022/10/11 01:34:38;;;;;;;0.60;0.60;;;5.90;99.90;;;;;;5052274;28;20584;-67
2022/10/11 01:37:18;;;;;;;0.70;0.70;;;5.80;99.90;;;;;;5052348;28;20272;-66
2022/10/11 01:40:26;;;;;;;0.70;0.70;;;5.70;99.90;;;;;;5052089;28;20189;-66
2022/10/11 01:42:54;;;;;;;0.50;0.50;;;5.60;99.90;;;;;;5033986;28;20240;-66
2022/10/11 01:45:20;;;;;;;0.60;0.60;;;5.40;99.90;;;;;;5052022;28;20185;-66
2022/10/11 01:47:46;;;;;;;0.70;0.70;;;5.30;99.90;;;;;;5034524;28;20243;-67
2022/10/11 01:50:42;;;;;;;0.60;0.60;;;5.20;99.90;;;;;;5052193;28;20592;-66
2022/10/11 01:53:25;;;;;;;0.57;0.57;;;5.10;99.90;;;;;;5052089;28;20193;-66
2022/10/11 01:56:12;;;;;;;0.50;0.50;;;5.00;99.90;;;;;;5052073;28;20205;-66
2022/10/11 01:58:44;;;;;;;0.52;0.52;;;5.00;99.90;;;;;;5050461;28;20668;-66
2022/10/11 02:01:33;;;;;;;0.50;0.50;;;4.90;99.90;;;;;;5051310;28;20371;-66
2022/10/11 02:04:05;;;;;;;0.50;0.50;;;4.80;99.90;;;;;;5051778;28;20276;-68
2022/10/11 02:07:01;;;;;;;0.50;0.50;;;4.80;99.90;;;;;;5051825;28;20536;-66
2022/10/11 02:10:00;;;;;;;0.45;0.45;;;4.70;99.90;;;;;;5057835;28;20220;-65
2022/10/11 02:12:38;;;;;;;0.70;0.70;;;4.60;99.90;;;;;;5035433;28;20721;-66
2022/10/11 02:15:08;;;;;;;0.55;0.55;;;4.50;99.90;;;;;;5051972;28;20193;-65
2022/10/11 02:17:40;;;;;;;0.70;0.70;;;4.50;99.90;;;;;;5051695;28;20656;-66
2022/10/11 02:20:12;;;;;;;1.05;1.05;;;4.40;99.90;;;;;;5051898;28;20668;-65
2022/10/11 02:22:41;;;;;;;0.60;0.60;;;4.40;99.90;;;;;;5051661;28;20644;-66
2022/10/11 02:25:10;;;;;;;0.50;0.50;;;4.40;99.90;;;;;;5055344;28;20201;-67
2022/10/11 02:27:39;;;;;;;0.70;0.70;;;4.40;99.90;;;;;;5037339;28;20201;-66
2022/10/11 02:30:08;;;;;;;0.55;0.55;;;4.30;99.90;;;;;;5055368;28;20656;-66
2022/10/11 02:32:35;;;;;;;0.60;0.60;;;4.30;99.90;;;;;;5055416;28;20301;-66
2022/10/11 02:35:02;;;;;;;0.50;0.50;;;4.20;99.90;;;;;;5055293;28;20284;-66
2022/10/11 02:37:40;;;;;;;0.60;0.60;;;4.30;99.90;;;;;;5054920;28;20280;-66
2022/10/11 02:40:36;;;;;;;0.60;0.60;;;4.20;99.90;;;;;;5037349;28;20309;-66
2022/10/11 02:43:04;;;;;;;0.60;0.60;;;4.30;99.90;;;;;;5042707;28;20217;-67
2022/10/11 02:45:36;;;;;;;0.60;0.60;;;4.20;99.90;;;;;;5054927;28;20201;-66
2022/10/11 02:48:03;;;;;;;0.50;0.50;;;4.30;99.90;;;;;;5055005;28;20585;-67
2022/10/11 02:50:29;;;;;;;0.50;0.50;;;4.30;99.90;;;;;;5037001;28;20197;-65
2022/10/11 02:52:55;;;;;;;0.60;0.60;;;4.30;99.90;;;;;;5054973;28;20194;-66
2022/10/11 02:55:20;;;;;;;0.90;0.90;;;4.20;99.90;;;;;;5054763;28;20262;-67
2022/10/11 02:57:46;;;;;;;0.60;0.60;;;4.20;99.90;;;;;;5054778;28;20223;-67
2022/10/11 03:00:13;;;;;;;0.50;0.50;;;4.10;99.90;;;;;;5054614;28;20246;-67
2022/10/11 03:02:38;;;;;;;0.60;0.60;;;4.10;99.90;;;;;;5053104;28;20241;-66
2022/10/11 03:05:04;;;;;;;0.70;0.70;;;4.00;99.90;;;;;;5046131;28;20220;-66
2022/10/11 03:07:30;;;;;;;0.70;0.70;;;4.00;99.90;;;;;;5074580;28;20193;-65
2022/10/11 03:09:56;;;;;;;0.55;0.55;;;3.90;99.90;;;;;;5074609;28;20197;-66
2022/10/11 03:12:21;;;;;;;0.52;0.52;;;3.90;99.90;;;;;;5069930;28;20225;-67
2022/10/11 03:14:47;;;;;;;0.68;0.68;;;3.80;99.90;;;;;;5054631;28;20240;-66
2022/10/11 03:17:13;;;;;;;0.70;0.70;;;3.80;99.90;;;;;;5036579;28;20216;-67
2022/10/11 03:19:38;;;;;;;1.73;1.63;;;3.80;99.90;;;;;;5054187;28;20196;-67
2022/10/11 03:22:04;;;;;;;0.60;0.60;;;3.70;99.90;;;;;;5054436;28;20605;-66
2022/10/11 03:24:29;;;;;;;0.50;0.50;;;3.60;99.90;;;;;;5054102;28;20205;-66
2022/10/11 03:26:55;;;;;;;0.52;0.52;;;3.60;99.90;;;;;;5054242;28;20190;-66
2022/10/11 03:29:21;;;;;;;0.70;0.70;;;3.50;99.90;;;;;;5054062;28;20186;-67
2022/10/11 03:31:46;;;;;;;0.60;0.60;;;3.50;99.90;;;;;;5054119;28;20205;-66
2022/10/11 03:34:12;;;;;;;1.05;1.02;;;3.50;99.90;;;;;;5053714;28;20204;-66
2022/10/11 03:36:38;;;;;;;0.50;0.50;;;3.50;99.90;;;;;;5053285;28;20279;-66
2022/10/11 03:39:04;;;;;;;0.70;0.70;;;3.30;99.90;;;;;;5054040;28;20274;-66
2022/10/11 03:41:30;;;;;;;0.60;0.60;;;3.30;99.90;;;;;;5053871;28;20239;-65
2022/10/11 03:43:55;;;;;;;0.60;0.60;;;3.30;99.90;;;;;;5053891;28;20213;-66
2022/10/11 03:46:21;;;;;;;1.42;1.33;;;3.60;99.90;;;;;;5053781;28;20243;-67
2022/10/11 03:48:47;;;;;;;0.60;0.60;;;3.50;99.90;;;;;;5053969;28;20202;-66
2022/10/11 03:51:13;;;;;;;0.60;0.60;;;3.60;99.90;;;;;;5053891;28;20641;-66
2022/10/11 03:53:40;;;;;;;0.52;0.52;;;3.50;99.90;;;;;;5052918;28;20201;-66
2022/10/11 03:56:06;;;;;;;0.60;0.60;;;3.40;99.90;;;;;;5053852;28;20668;-65
2022/10/11 03:58:32;;;;;;;0.63;0.63;;;3.30;99.90;;;;;;5053641;28;20204;-65
2022/10/11 04:00:58;;;;;;;0.60;0.60;;;3.30;99.90;;;;;;5051496;28;20283;-65
2022/10/11 04:03:24;;;;;;;0.40;0.40;;;3.20;99.90;;;;;;5073394;28;20731;-66
2022/10/11 04:05:50;;;;;;;0.60;0.60;;;3.20;99.90;;;;;;5055333;28;20287;-65
2022/10/11 04:08:16;;;;;;;0.50;0.50;;;3.10;99.90;;;;;;5073472;28;20279;-66
2022/10/11 04:10:42;;;;;;;0.70;0.70;;;3.10;99.90;;;;;;5073245;28;20280;-66
2022/10/11 04:13:10;;;;;;;0.70;0.70;;;3.10;99.90;;;;;;5062475;28;20229;-66
2022/10/11 04:15:37;;;;;;;0.70;0.70;;;3.00;99.90;;;;;;5053232;28;20193;-66
2022/10/11 04:18:03;;;;;;;0.55;0.55;;;3.00;99.90;;;;;;5053357;28;20197;-67
2022/10/11 04:20:29;;;;;;;0.82;0.80;;;3.00;99.90;;;;;;5053110;28;20323;-66
2022/10/11 04:22:54;;;;;;;0.60;0.60;;;3.00;99.90;;;;;;5053278;28;20634;-67
2022/10/11 04:25:23;;;;;;;0.70;0.70;;;3.00;99.90;;;;;;5035083;28;20202;-67
2022/10/11 04:27:48;;;;;;;0.50;0.50;;;3.10;99.90;;;;;;5051052;28;20201;-67
2022/10/11 04:30:15;;;;;;;0.50;0.50;;;3.10;99.90;;;;;;5053093;28;20277;-67
2022/10/11 04:32:41;;;;;;;0.60;0.60;;;3.10;99.90;;;;;;5053387;28;20209;-67
2022/10/11 04:35:07;;;;;;;0.60;0.60;;;3.00;99.90;;;;;;5035112;28;20210;-68
2022/10/11 04:37:33;;;;;;;0.60;0.60;;;3.00;99.90;;;;;;5071080;28;20193;-66
2022/10/11 04:39:58;;;;;;;0.70;0.70;;;2.90;99.90;;;;;;5072923;28;20208;-67
2022/10/11 04:42:24;;;;;;;0.60;0.60;;;3.00;99.90;;;;;;5072726;28;20558;-66
2022/10/11 04:44:50;;;;;;;0.70;0.70;;;3.10;99.90;;;;;;5051437;28;20208;-67
2022/10/11 04:47:15;;;;;;;0.70;0.70;;;3.20;99.90;;;;;;5052131;28;20233;-64
2022/10/11 04:49:41;;;;;;;0.60;0.60;;;3.20;99.90;;;;;;5052386;28;20197;-67
2022/10/11 04:52:07;;;;;;;0.47;0.47;;;3.20;99.90;;;;;;5052440;28;20194;-68
2022/10/11 04:54:32;;;;;;;0.50;0.50;;;3.10;99.90;;;;;;5034094;28;20590;-67
2022/10/11 04:56:58;;;;;;;0.80;0.80;;;3.10;99.90;;;;;;5053011;28;20254;-67
2022/10/11 04:59:24;;;;;;;0.70;0.70;;;3.10;99.90;;;;;;5034688;28;20197;-66
2022/10/11 05:01:49;;;;;;;0.50;0.50;;;3.10;99.90;;;;;;5035001;28;20208;-66
2022/10/11 05:04:15;;;;;;;0.60;0.60;;;3.00;99.90;;;;;;5052238;28;20243;-67
2022/10/11 05:06:41;;;;;;;0.60;0.60;;;3.00;99.90;;;;;;5052376;28;20195;-66
2022/10/11 05:09:06;;;;;;;0.63;0.63;;;2.90;99.90;;;;;;5052646;28;20200;-67
2022/10/11 05:11:32;;;;;;;0.50;0.50;;;3.00;99.90;;;;;;5052281;28;20229;-67
2022/10/11 05:13:57;;;;;;;0.55;0.55;;;3.00;99.90;;;;;;5052527;28;20190;-66
2022/10/11 05:16:24;;;;;;;0.60;0.60;;;3.00;99.90;;;;;;5058305;28;20319;-66
2022/10/11 05:18:49;;;;;;;0.60;0.60;;;2.90;99.90;;;;;;5072210;28;20482;-67
2022/10/11 05:21:20;;;;;;;0.70;0.70;;;2.90;99.90;;;;;;5063120;28;20631;-67
2022/10/11 05:23:48;;;;;;;0.60;0.60;;;2.90;99.90;;;;;;5052496;28;20672;-68
2022/10/11 05:26:15;;;;;;;0.70;0.70;;;2.80;99.90;;;;;;5058525;28;20227;-67
2022/10/11 05:28:40;;;;;;;0.60;0.60;;;2.80;99.90;;;;;;5072233;28;20200;-67
2022/10/11 05:31:06;;;;;;;0.65;0.65;;;2.80;99.90;;;;;;5072421;28;20219;-66
2022/10/11 05:33:32;;;;;;;0.60;0.60;;;2.70;99.90;;;;;;5054611;28;20205;-66
2022/10/11 05:35:59;;;;;;;0.52;0.52;;;2.80;99.90;;;;;;5054437;28;20211;-67
2022/10/11 05:38:25;;;;;;;0.60;0.60;;;2.80;99.90;;;;;;5054841;28;20673;-67
2022/10/11 05:40:51;;;;;;;0.50;0.50;;;2.90;99.90;;;;;;5072384;28;20276;-68
2022/10/11 05:43:17;;;;;;;0.50;0.50;;;2.80;99.90;;;;;;5072659;28;20209;-68
2022/10/11 05:45:45;;;;;;;0.60;0.60;;;2.80;99.90;;;;;;5072009;28;20236;-67
2022/10/11 05:48:11;;;;;;;0.52;0.52;;;2.80;99.90;;;;;;5054340;28;20208;-67
2022/10/11 05:50:37;;;;;;;0.57;0.57;;;2.80;99.90;;;;;;5072345;28;20201;-67
2022/10/11 05:53:03;;;;;;;0.60;0.60;;;2.90;99.90;;;;;;5054635;28;20201;-69
2022/10/11 05:55:29;;;;;;;0.70;0.70;;;2.90;99.90;;;;;;5062603;28;20695;-67
2022/10/11 05:57:56;;;;;;;0.60;0.60;;;3.00;99.90;;;;;;5052840;28;20193;-67
2022/10/11 06:00:22;;;;;;;0.50;0.50;;;3.20;99.90;;;;;;5055999;28;20664;-68
2022/10/11 06:02:48;;;;;;;0.50;0.50;;;3.40;99.90;;;;;;5069376;28;20266;-67
2022/10/11 06:05:14;;;;;;;0.50;0.50;;;3.50;99.90;;;;;;5057881;28;20196;-66
2022/10/11 06:07:40;;;;;;;0.80;0.80;;;3.50;99.90;;;;;;5075412;28;20391;-66
2022/10/11 06:10:06;;;;;;;0.60;0.60;;;3.70;99.90;;;;;;5075758;28;20238;-67
2022/10/11 06:12:32;;;;;;;0.60;0.60;;;4.10;99.90;;;;;;5054171;28;20595;-65
2022/10/11 06:14:58;;;;;;;0.60;0.60;;;4.30;99.90;;;;;;5055723;28;20196;-67
2022/10/11 06:17:24;;;;;;;0.50;0.50;;;4.40;99.90;;;;;;5054208;28;20284;-66
2022/10/11 06:19:50;;;;;;;0.60;0.60;;;4.50;99.90;;;;;;5054299;28;20202;-66
2022/10/11 06:22:16;;;;;;;0.55;0.55;;;4.70;99.90;;;;;;5055269;28;20556;-67
2022/10/11 06:24:43;;;;;;;0.70;0.70;;;4.90;99.90;;;;;;5055410;28;20273;-67
2022/10/11 06:27:08;;;;;;;0.60;0.60;;;4.90;99.90;;;;;;5054158;28;20567;-67
2022/10/11 06:29:35;;;;;;;0.70;0.70;;;5.00;99.90;;;;;;5055272;28;20190;-67
2022/10/11 06:32:01;;;;;;;0.60;0.60;;;5.20;99.90;;;;;;5054203;28;20272;-68
2022/10/11 06:34:27;;;;;;;0.60;0.60;;;5.30;99.90;;;;;;5036286;28;20225;-68
2022/10/11 06:36:53;;;;;;;0.60;0.60;;;5.30;99.90;;;;;;5035371;28;20248;-68
2022/10/11 06:39:19;;;;;;;0.60;0.60;;;5.40;99.90;;;;;;5034223;28;20198;-70
2022/10/11 06:41:45;;;;;;;0.70;0.70;;;5.50;99.90;;;;;;5035308;28;20198;-67
2022/10/11 06:44:14;;;;;;;0.70;0.70;;;5.60;99.90;;;;;;5035060;28;20294;-68
2022/10/11 06:46:40;;;;;;;0.63;0.63;;;5.70;99.90;;;;;;5035061;28;20255;-66
2022/10/11 06:49:06;;;;;;;0.60;0.60;;;5.70;99.90;;;;;;5035081;28;20588;-67
2022/10/11 06:51:34;;;;;;;0.82;0.80;;;5.80;99.90;;;;;;5034943;28;20209;-67
2022/10/11 06:54:00;;;;;;;0.80;0.80;;;6.00;99.90;;;;;;5034970;28;20285;-68
2022/10/11 06:56:28;;;;;;;0.70;0.70;;;6.00;99.90;;;;;;5034632;28;20564;-67
2022/10/11 06:58:55;;;;;;;0.57;0.57;;;6.10;99.90;;;;;;5034982;28;20194;-67
2022/10/11 07:01:22;;;;;;;0.55;0.55;;;6.20;99.90;;;;;;5034671;28;20206;-67
2022/10/11 07:03:49;;;;;;;0.60;0.60;;;6.40;99.90;;;;;;5034814;28;20213;-67
2022/10/11 07:06:25;;;;;;;0.70;0.70;;;6.40;99.90;;;;;;5034713;28;20194;-66
2022/10/11 07:08:51;;;;;;;0.70;0.70;;;6.50;99.90;;;;;;5034716;28;20208;-67
2022/10/11 07:11:19;;;;;;;1.77;1.60;;;6.60;99.90;;;;;;5037897;28;20218;-67
2022/10/11 07:13:53;;;;;;;0.52;0.52;;;6.60;99.90;;;;;;5054655;28;20197;-66
2022/10/11 07:16:19;;;;;;;0.60;0.60;;;6.70;99.90;;;;;;5036507;28;20242;-69
2022/10/11 07:18:46;;;;;;;0.60;0.60;;;6.80;99.90;;;;;;5060710;28;20538;-67
2022/10/11 07:21:14;;;;;;;0.60;0.60;;;6.90;99.90;;;;;;5074490;28;20223;-67
2022/10/11 07:23:41;;;;;;;0.57;0.57;;;7.00;99.90;;;;;;5074258;28;20334;-68
2022/10/11 07:26:07;;;;;;;0.65;0.65;;;7.10;99.90;;;;;;5074352;28;20189;-68
2022/10/11 07:28:34;;;;;;;0.70;0.70;;;7.20;99.90;;;;;;5074504;28;20189;-67
2022/10/11 07:31:21;;;;;;;0.77;0.77;;;7.40;99.90;;;;;;5056284;28;20193;-68
2022/10/11 07:33:47;;;;;;;1.25;0.98;;;7.50;99.90;;;;;;5074471;28;20196;-67
2022/10/11 07:36:13;;;;;;;0.63;0.63;;;7.60;99.90;;;;;;5074181;28;20196;-67
2022/10/11 07:38:41;;;;;;;0.60;0.60;;;7.70;99.90;;;;;;5073727;28;20197;-68
2022/10/11 07:41:07;;;;;;;0.65;0.65;;;7.70;99.90;;;;;;5074084;28;20561;-67
2022/10/11 07:43:33;;;;;;;0.80;0.80;;;7.80;99.90;;;;;;5055907;28;20208;-66
2022/10/11 07:46:02;;;;;;;0.60;0.60;;;8.00;99.90;;;;;;5074021;28;20536;-70
2022/10/11 07:48:32;;;;;;;2.35;2.05;;;8.10;99.90;;;;;;5059435;28;20718;-68
2022/10/11 07:51:19;;;;;;;0.70;0.70;;;8.20;99.90;;;;;;5053968;28;20293;-68
2022/10/11 07:53:55;;;;;;;0.60;0.60;;;8.30;99.90;;;;;;5052908;28;20281;-66
2022/10/11 07:56:23;;;;;;;0.50;0.50;;;8.40;99.90;;;;;;5035023;28;20202;-68
2022/10/11 07:58:52;;;;;;;0.50;0.50;;;8.50;99.90;;;;;;5033808;28;20257;-67
2022/10/11 08:01:18;;;;;;;1.50;1.40;;;8.70;99.90;;;;;;5016048;28;20566;-66
2022/10/11 08:03:44;;;;;;;0.52;0.52;;;8.70;99.90;;;;;;5033544;28;20217;-67
2022/10/11 08:06:12;;;;;;;0.50;0.50;;;8.90;99.90;;;;;;5038068;28;20198;-68
2022/10/11 08:08:38;;;;;;;0.60;0.60;;;9.00;99.90;;;;;;5053385;28;20715;-67
2022/10/11 08:11:04;;;;;;;0.60;0.60;;;9.00;99.90;;;;;;5053356;28;20193;-67
2022/10/11 08:13:30;;;;;;;0.60;0.60;;;9.10;99.90;;;;;;5053263;28;20688;-68
2022/10/11 08:15:56;;;;;;;0.70;0.70;;;9.20;99.90;;;;;;5067238;28;20231;-68
2022/10/11 08:18:23;;;;;;;0.65;0.65;;;9.40;99.90;;;;;;5073147;28;20200;-67
2022/10/11 08:20:48;;;;;;;0.50;0.50;;;9.50;99.90;;;;;;5072760;28;20204;-67
2022/10/11 08:23:16;;;;;;;0.60;0.60;;;9.60;99.90;;;;;;5073230;28;20208;-66
2022/10/11 08:25:44;;;;;;;0.60;0.60;;;9.60;99.90;;;;;;5073067;28;20651;-67
2022/10/11 08:28:16;;;;;;;0.60;0.60;;;9.60;99.90;;;;;;5073146;28;20199;-67
2022/10/11 08:30:53;;;;;;;0.60;0.60;;;9.80;99.90;;;;;;5055045;28;20200;-66
2022/10/11 08:33:21;;;;;;;0.60;0.60;;;10.00;99.90;;;;;;5073017;28;20630;-68
2022/10/11 08:35:48;;;;;;;23.35;1.08;;;9.90;99.90;;;;;;5073016;28;20203;-68
2022/10/11 08:38:14;;;;;;;0.50;0.50;;;10.00;99.90;;;;;;5054969;28;20200;-68
2022/10/11 08:40:57;;;;;;;0.60;0.60;;;10.10;99.90;;;;;;5054916;28;20271;-68
2022/10/11 08:43:35;;;;;;;0.80;0.75;;;10.20;99.90;;;;;;5069621;28;20213;-67
2022/10/11 08:46:02;;;;;;;0.60;0.60;;;10.30;99.90;;;;;;5052931;28;20194;-66
2022/10/11 08:48:47;;;;;;;0.70;0.70;;;10.40;99.90;;;;;;5052516;28;20633;-67
2022/10/11 08:51:38;;;;;;;0.40;0.40;;;10.40;99.90;;;;;;5052790;28;20193;-67
2022/10/11 08:54:19;;;;;;;0.60;0.60;;;10.40;99.90;;;;;;5052831;28;20198;-68
2022/10/11 08:56:45;;;;;;;0.50;0.50;;;10.50;99.90;;;;;;5032871;28;20201;-67
2022/10/11 08:59:11;;;;;;;0.60;0.60;;;10.50;99.90;;;;;;5014988;28;20206;-67
2022/10/11 09:01:43;;;;;;;0.52;0.52;;;10.60;99.90;;;;;;5032609;28;20680;-66
2022/10/11 09:04:16;;;;;;;0.52;0.52;;;10.80;99.90;;;;;;5032543;28;20217;-68
2022/10/11 09:06:53;;;;;;;0.52;0.52;;;11.10;99.90;;;;;;5014758;28;20232;-67
2022/10/11 09:09:51;;;;;;;0.50;0.50;;;11.20;99.90;;;;;;5015047;28;20205;-68
2022/10/11 09:12:32;;;;;;;0.60;0.60;;;11.40;99.90;;;;;;5067195;28;20229;-68
2022/10/11 09:15:01;;;;;;;0.57;0.57;;;11.30;99.90;;;;;;5054612;28;20193;-67
2022/10/11 09:17:41;;;;;;;0.50;0.50;;;11.50;99.90;;;;;;5061190;28;20276;-68
2022/10/11 09:20:31;;;;;;;0.50;0.50;;;11.90;99.90;;;;;;5052365;28;20189;-67
2022/10/11 09:23:24;;;;;;;0.60;0.60;;;11.90;99.90;;;;;;5052475;28;20201;-67
2022/10/11 09:26:13;;;;;;;0.98;0.93;;;11.80;99.90;;;;;;5052542;28;20391;-66
2022/10/11 09:28:42;;;;;;;0.50;0.50;;;11.60;99.90;;;;;;5052254;28;20201;-66
2022/10/11 09:31:10;;;;;;;0.50;0.50;;;11.60;99.90;;;;;;5066572;28;20204;-67
2022/10/11 09:33:37;;;;;;;0.60;0.60;;;11.70;99.90;;;;;;5073807;28;20557;-67
2022/10/11 09:36:42;;;;;;;0.80;0.65;;;11.60;99.90;;;;;;5076415;28;20196;-68
2022/10/11 09:39:30;;;;;;;0.60;0.60;;;11.60;99.90;;;;;;5035647;28;20205;-67
2022/10/11 09:42:09;;;;;;;0.50;0.50;;;11.80;99.90;;;;;;5036510;28;20243;-68
2022/10/11 09:44:38;;;;;;;0.60;0.60;;;11.90;99.90;;;;;;5036110;28;20684;-67
2022/10/11 09:47:05;;;;;;;0.50;0.50;;;12.10;99.90;;;;;;5038436;28;20201;-67
2022/10/11 09:49:39;;;;;;;0.60;0.60;;;12.40;99.90;;;;;;5055875;28;20196;-66
2022/10/11 09:52:14;;;;;;;0.60;0.60;;;12.70;99.90;;;;;;5056121;28;20207;-66
2022/10/11 09:54:58;;;;;;;0.60;0.60;;;12.80;99.90;;;;;;5055782;28;20557;-67
2022/10/11 09:57:34;;;;;;;0.40;0.40;;;12.90;99.90;;;;;;5037892;28;20540;-67
2022/10/11 10:00:21;;;;;;;0.50;0.50;;;12.80;99.90;;;;;;5054759;28;20239;-67
2022/10/11 10:02:52;;;;;;;0.50;0.50;;;12.80;99.90;;;;;;5055879;28;20648;-67
2022/10/11 10:05:21;;;;;;;0.50;0.50;;;12.70;99.90;;;;;;5055799;28;20189;-67
2022/10/11 10:07:56;;;;;;;0.47;0.47;;;12.90;99.90;;;;;;5064412;28;20670;-66
2022/10/11 10:10:54;;;;;;;0.47;0.47;;;13.00;99.90;;;;;;5075622;28;20739;-68
2022/10/11 10:13:21;;;;;;;0.50;0.50;;;12.80;99.90;;;;;;5035726;28;20278;-68
2022/10/11 10:15:50;;;;;;;0.50;0.50;;;12.90;99.90;;;;;;5035839;28;20194;-67
2022/10/11 10:18:41;;;;;;;2.95;0.82;;;12.90;99.90;;;;;;5035754;28;20206;-67
2022/10/11 10:21:11;;;;;;;0.40;0.40;;;13.10;99.90;;;;;;5035727;28;20198;-67
2022/10/11 10:23:37;;;;;;;0.50;0.50;;;13.10;99.90;;;;;;5035449;28;20712;-67
2022/10/11 10:26:20;;;;;;;0.50;0.50;;;13.30;99.90;;;;;;5026929;28;20249;-69
2022/10/11 10:29:09;;;;;;;0.90;0.82;;;13.40;99.90;;;;;;5015968;28;20191;-67
2022/10/11 10:31:49;;;;;;;0.50;0.50;;;13.40;99.90;;;;;;5011499;28;20233;-68
2022/10/11 10:34:23;;;;;;;0.50;0.50;;;13.50;99.90;;;;;;5015756;28;20217;-67
2022/10/11 10:36:56;;;;;;;0.47;0.47;;;13.40;99.90;;;;;;5015583;28;20213;-67
2022/10/11 10:39:28;;;;;;;0.30;0.30;;;13.50;99.90;;;;;;5030711;28;20253;-67
2022/10/11 10:41:55;;;;;;;0.50;0.50;;;13.50;99.90;;;;;;5015748;28;20542;-67
2022/10/11 10:44:20;;;;;;;0.43;0.43;;;13.60;99.90;;;;;;5013376;28;20574;-67
2022/10/11 10:47:05;;;;;;;0.40;0.40;;;14.00;99.90;;;;;;5015582;28;20206;-68
2022/10/11 10:49:48;;;;;;;0.40;0.40;;;13.70;99.90;;;;;;5015341;28;20244;-67
2022/10/11 10:52:40;;;;;;;0.63;0.60;;;14.10;99.90;;;;;;5015478;28;20253;-67
2022/10/11 10:55:06;;;;;;;0.40;0.40;;;14.40;99.90;;;;;;5015273;28;20191;-67
2022/10/11 10:57:35;;;;;;;0.45;0.45;;;14.20;99.90;;;;;;5015156;28;20199;-67
2022/10/11 11:00:18;;;;;;;0.40;0.40;;;14.20;99.90;;;;;;5015280;28;20249;-67
2022/10/11 11:03:00;;;;;;;0.40;0.40;;;13.80;99.90;;;;;;5013781;28;20198;-66
2022/10/11 11:05:47;;;;;;;0.40;0.40;;;14.10;99.90;;;;;;5014972;28;20195;-67
2022/10/11 11:08:40;;;;;;;0.38;0.38;;;14.40;99.90;;;;;;5015141;28;20195;-67
2022/10/11 11:11:34;;;;;;;0.40;0.40;;;14.40;99.90;;;;;;5018184;28;20270;-67
2022/10/11 11:14:22;;;;;;;0.40;0.40;;;14.20;99.90;;;;;;5036794;28;20193;-67
2022/10/11 11:17:07;;;;;;;0.40;0.40;;;14.40;99.90;;;;;;5054663;28;20267;-68
2022/10/11 11:19:56;;;;;;;0.50;0.50;;;14.40;99.90;;;;;;5054766;28;20663;-67
2022/10/11 11:22:56;;;;;;;0.32;0.32;;;14.40;99.90;;;;;;5054122;28;20205;-67
2022/10/11 11:25:42;;;;;;;0.40;0.40;;;14.70;99.90;;;;;;5054304;28;20205;-68
2022/10/11 11:28:23;;;;;;;0.40;0.40;;;14.70;99.90;;;;;;5054421;28;20273;-67
2022/10/11 11:31:22;;;;;;;0.40;0.40;;;14.60;99.90;;;;;;5054409;28;20193;-66
2022/10/11 11:33:59;;;;;;;0.40;0.40;;;14.70;99.90;;;;;;5023098;28;20283;-67
2022/10/11 11:36:54;;;;;;;0.40;0.40;;;14.80;99.90;;;;;;5054144;28;20189;-67
2022/10/11 11:39:27;;;;;;;0.50;0.50;;;14.80;99.90;;;;;;5030528;28;20259;-68
2022/10/11 11:42:03;;;;;;;0.40;0.40;;;14.60;99.90;;;;;;5054262;28;20541;-67
2022/10/11 11:44:32;;;;;;;0.40;0.40;;;14.40;99.90;;;;;;5053972;28;20197;-69
2022/10/11 11:47:36;;;;;;;0.40;0.40;;;14.40;99.90;;;;;;5036211;28;20204;-67
2022/10/11 11:50:05;;;;;;;0.35;0.35;;;14.30;99.90;;;;;;5041495;28;20623;-67
2022/10/11 11:52:40;;;;;;;0.40;0.40;;;14.30;99.90;;;;;;5053866;28;20684;-68
2022/10/11 11:55:22;;;;;;;0.40;0.40;;;14.60;99.90;;;;;;5053711;28;20196;-67
2022/10/11 11:57:59;;;;;;;1.95;0.55;;;14.90;99.90;;;;;;5053493;28;20649;-69
2022/10/11 12:00:36;;;;;;;0.40;0.40;;;15.10;99.90;;;;;;5063229;28;20193;-68
2022/10/11 12:03:10;;;;;;;0.30;0.30;;;15.10;99.90;;;;;;5073736;28;20235;-68
2022/10/11 12:05:35;;;;;;;0.40;0.40;;;15.20;99.90;;;;;;5073419;28;20226;-67
2022/10/11 12:08:04;;;;;;;0.40;0.40;;;15.00;99.90;;;;;;5073665;28;20189;-68
2022/10/11 12:10:36;;;;;;;0.35;0.35;;;15.00;99.90;;;;;;5073505;28;20185;-67
2022/10/11 12:13:32;;;;;;;0.40;0.40;;;15.10;99.90;;;;;;5073385;28;20259;-67
2022/10/11 12:16:09;;;;;;;0.40;0.40;;;15.30;99.90;;;;;;5073507;28;20189;-68
2022/10/11 12:18:47;;;;;;;0.40;0.40;;;15.20;99.90;;;;;;5073294;28;20193;-67
2022/10/11 12:21:37;;;;;;;0.40;0.40;;;15.00;99.90;;;;;;5073433;28;20217;-67
2022/10/11 12:24:21;;;;;;;0.38;0.38;;;15.00;99.90;;;;;;5073173;28;20213;-68
2022/10/11 12:26:49;;;;;;;0.40;0.40;;;14.70;99.90;;;;;;5073300;28;20199;-68
2022/10/11 12:29:17;;;;;;;0.40;0.40;;;15.00;99.90;;;;;;5063050;28;20213;-67
2022/10/11 12:32:03;;;;;;;0.40;0.40;;;14.80;99.90;;;;;;5053068;28;20193;-67
2022/10/11 12:34:38;;;;;;;0.68;0.43;;;14.90;99.90;;;;;;5032134;28;20245;-69
2022/10/11 12:37:30;;;;;;;0.40;0.40;;;14.80;99.90;;;;;;5053125;28;20255;-68
2022/10/11 12:39:58;;;;;;;0.40;0.40;;;14.70;99.90;;;;;;5025807;28;20233;-69
2022/10/11 12:42:34;;;;;;;0.40;0.40;;;14.50;99.90;;;;;;5052844;28;20220;-67
2022/10/11 12:45:12;;;;;;;0.30;0.30;;;14.50;99.90;;;;;;5053001;28;20209;-68
2022/10/11 12:48:15;;;;;;;0.40;0.40;;;14.40;99.90;;;;;;5052732;28;20662;-66
2022/10/11 12:50:46;;;;;;;0.30;0.30;;;14.20;99.90;;;;;;5052813;28;20215;-67
2022/10/11 12:53:21;;;;;;;0.40;0.40;;;14.00;99.90;;;;;;5052949;28;20668;-67
2022/10/11 12:56:09;;;;;;;0.40;0.40;;;13.70;99.90;;;;;;5054926;28;20204;-68
2022/10/11 12:58:40;;;;;;;0.43;0.43;;;13.40;99.90;;;;;;5054650;28;20201;-67
2022/10/11 13:01:09;;;;;;;0.40;0.40;;;13.30;99.90;;;;;;5072852;28;20204;-67
2022/10/11 13:03:43;;;;;;;0.40;0.40;;;13.20;99.90;;;;;;5072554;28;20603;-66
2022/10/11 13:06:18;;;;;;;0.40;0.40;;;13.30;99.90;;;;;;5072719;28;20195;-66
2022/10/11 13:08:55;;;;;;;0.40;0.40;;;13.40;99.90;;;;;;5054608;28;20196;-66
2022/10/11 13:11:29;;;;;;;0.50;0.50;;;13.20;99.90;;;;;;5072437;28;20273;-67
2022/10/11 13:14:09;;;;;;;0.40;0.40;;;13.00;99.90;;;;;;5072835;28;20253;-67
2022/10/11 13:17:23;;;;;;;0.43;0.43;;;12.80;99.90;;;;;;5072370;28;20200;-67
2022/10/11 13:20:00;;;;;;;0.50;0.50;;;12.80;99.90;;;;;;5045720;28;20728;-67